Impacts METAR Board
IDs:

KFMN - Farmington/Four Corn, NM, US

Updated at: 0200 UTC 20 Sep 2020
Potential Impact None Slight Moderate High
Time 19/14Z 19/15Z 19/16Z 19/17Z 19/18Z 19/19Z 19/20Z 19/21Z 19/22Z 19/23Z 20/00Z 20/01Z 20/02Z
Temp61 65 70 73 76 79 83 84 82 83 83 80 78
Dewpt35 36 36 36 36 36 35 32 31 31 31 31 31
Altim30.24 30.26 30.26 30.26 30.24 30.20 30.16 30.13 30.11 30.09 30.08 30.08 30.08
VIS10 10 10 10 10 10 10 10 10 10 10 10 10
CIG-- -- -- -- -- -- -- -- -- -- -- -- --
CoverCLRCLRCLRCLRCLRCLRCLRCLRCLRCLRCLRCLRCLR
FltCatVFRVFRVFRVFRVFRVFRVFRVFRVFRVFRVFRVFRVFR
WX--------------------------
WDir100709011013090120120002009080
WSpd7 8 8 10 6 7 7 3 4 0 4 5 3
WGst-- -- -- -- -- -- -- -- -- -- -- -- --
Raw hourly METARs
KFMN 191353Z 10007KT 10SM CLR 16/02 A3024 RMK AO2 SLP186 T01610017
KFMN 191453Z 07008KT 10SM CLR 18/02 A3026 RMK AO2 SLP192 T01830022 53007
KFMN 191553Z 09008KT 10SM CLR 21/02 A3026 RMK AO2 SLP190 T02110022
KFMN 191653Z 11010KT 10SM CLR 23/02 A3026 RMK AO2 SLP184 T02280022
KFMN 191753Z 13006KT 10SM CLR 24/02 A3024 RMK AO2 SLP178 T02440022 10250 20156 58006
KFMN 191853Z 09007KT 060V130 10SM CLR 26/02 A3020 RMK AO2 SLP162 T02610022
KFMN 191953Z 12007KT 10SM CLR 28/02 A3016 RMK AO2 SLP146 T02830017
KFMN 192053Z 12003KT 10SM CLR 29/00 A3013 RMK AO2 SLP136 T02890000 56031
KFMN 192153Z VRB04KT 10SM CLR 28/M01 A3011 RMK AO2 SLP135 T02781006
KFMN 192253Z 00000KT 10SM CLR 28/M01 A3009 RMK AO2 SLP127 T02831006
KFMN 192353Z 20004KT 10SM CLR 28/M01 A3008 RMK AO2 SLP124 T02831006 10294 20244 56013
KFMN 200053Z 09005KT 10SM CLR 27/M01 A3008 RMK AO2 SLP128 T02671006
KFMN 200153Z 08003KT 10SM CLR 26/M01 A3008 RMK AO2 SLP130 T02561006



Page loaded:  02:31 UTC  |   07:31 PM Pacific  |   08:31 PM Mountain  |   09:31 PM Central  |   10:31 PM Eastern

 

ADVISORIES

FORECASTS

FORECASTS

OBSERVATIONS

USER TOOLS

ABOUT US